Time;durP1;ratioP1;P1;durP2;ratioP2;P2;SDS_P1;SDS_P2;PMS_P1;PMS_P2;Temp;Humidity;BMP_temperature;BMP_pressure;BME280_temperature;BME280_humidity;BME280_pressure;Samples;Min_cycle;Max_cycle;Signal;HPM_P1;HPM_P2
2022/07/13 00:01:17;;;;;;;;;;;20.70;99.90;;;;;;5023962;28;19924;-69
2022/07/13 00:03:45;;;;;;;;;;;20.80;99.90;;;;;;5023988;28;19928;-69
2022/07/13 00:06:11;;;;;;;;;;;20.80;99.90;;;;;;5028593;28;20036;-69
2022/07/13 00:08:36;;;;;;;;;;;20.80;99.90;;;;;;5018912;28;20016;-68
2022/07/13 00:11:02;;;;;;;;;;;20.80;99.90;;;;;;5003211;28;19932;-68
2022/07/13 00:13:27;;;;;;;;;;;20.80;99.90;;;;;;5017954;28;19932;-69
2022/07/13 00:15:53;;;;;;;;;;;20.80;99.90;;;;;;4999611;28;19932;-69
2022/07/13 00:18:18;;;;;;;;;;;20.80;99.90;;;;;;5024644;28;19921;-68
2022/07/13 00:20:45;;;;;;;;;;;20.80;99.90;;;;;;4994257;28;19917;-68
2022/07/13 00:23:10;;;;;;;;;;;20.80;99.90;;;;;;5012043;28;19917;-69
2022/07/13 00:25:36;;;;;;;;;;;20.80;99.90;;;;;;5028314;28;19924;-69
2022/07/13 00:28:01;;;;;;;;;;;20.80;99.90;;;;;;5022176;28;19947;-69
2022/07/13 00:30:27;;;;;;;;;;;20.80;99.90;;;;;;5018377;28;19936;-69
2022/07/13 00:32:52;;;;;;;;;;;20.80;99.90;;;;;;5016943;28;19929;-69
2022/07/13 00:35:18;;;;;;;;;;;20.80;99.90;;;;;;5031409;28;19924;-69
2022/07/13 00:37:44;;;;;;;;;;;20.80;99.90;;;;;;5013864;28;20385;-69
2022/07/13 00:40:09;;;;;;;;;;;20.80;99.90;;;;;;5017044;28;19960;-69
2022/07/13 00:42:35;;;;;;;;;;;20.80;99.90;;;;;;5028277;28;19937;-68
2022/07/13 00:45:00;;;;;;;;;;;20.80;99.90;;;;;;5026267;28;19968;-69
2022/07/13 00:47:29;;;;;;;;;;;20.80;99.90;;;;;;4998196;28;19929;-69
2022/07/13 00:49:55;;;;;;;;;;;20.80;99.90;;;;;;5025904;28;20327;-69
2022/07/13 00:52:20;;;;;;;;;;;20.80;99.90;;;;;;5000062;28;19916;-69
2022/07/13 00:54:46;;;;;;;;;;;20.80;99.90;;;;;;5012231;28;19976;-69
2022/07/13 00:57:13;;;;;;;;;;;20.80;99.90;;;;;;5016167;28;19917;-69
2022/07/13 00:59:39;;;;;;;;;;;20.80;99.90;;;;;;5010887;28;19917;-69
2022/07/13 01:02:05;;;;;;;;;;;20.80;99.90;;;;;;4994764;28;20258;-68
2022/07/13 01:04:30;;;;;;;;;;;20.80;99.90;;;;;;5019228;28;20426;-69
2022/07/13 01:06:57;;;;;;;;;;;20.80;99.90;;;;;;5011388;28;19925;-69
2022/07/13 01:09:22;;;;;;;;;;;20.80;99.90;;;;;;5016917;28;20714;-69
2022/07/13 01:11:48;;;;;;;;;;;20.80;99.90;;;;;;5021534;28;19951;-69
2022/07/13 01:14:14;;;;;;;;;;;20.80;99.90;;;;;;5006437;28;19920;-69
2022/07/13 01:16:42;;;;;;;;;;;20.80;99.90;;;;;;5029563;28;19917;-69
2022/07/13 01:19:13;;;;;;;;;;;20.80;99.90;;;;;;5009053;28;19925;-76
2022/07/13 01:21:44;;;;;;;;;;;20.80;99.90;;;;;;5020131;28;20274;-69
2022/07/13 01:24:11;;;;;;;;;;;20.80;99.90;;;;;;5026425;28;19925;-69
2022/07/13 01:26:37;;;;;;;;;;;20.80;99.90;;;;;;5006417;28;19951;-69
2022/07/13 01:29:03;;;;;;;;;;;20.90;99.90;;;;;;5008511;28;19928;-69
2022/07/13 01:31:32;;;;;;;;;;;20.90;99.90;;;;;;5025821;28;19917;-69
2022/07/13 01:33:58;;;;;;;;;;;20.90;99.90;;;;;;5026592;28;19921;-69
2022/07/13 01:36:24;;;;;;;;;;;20.90;99.90;;;;;;5024297;28;20392;-69
2022/07/13 01:38:49;;;;;;;;;;;20.90;99.90;;;;;;5017001;28;20424;-69
2022/07/13 01:41:16;;;;;;;;;;;20.90;99.90;;;;;;5027336;28;19917;-69
2022/07/13 01:43:42;;;;;;;;;;;20.90;99.90;;;;;;5007236;28;19984;-69
2022/07/13 01:46:09;;;;;;;;;;;20.90;99.90;;;;;;5022294;28;20288;-69
2022/07/13 01:48:35;;;;;;;;;;;20.90;99.90;;;;;;5020176;28;19923;-69
2022/07/13 01:51:00;;;;;;;;;;;20.90;99.90;;;;;;5012876;28;20350;-69
2022/07/13 01:53:26;;;;;;;;;;;20.90;99.90;;;;;;5031747;28;20024;-69
2022/07/13 01:55:51;;;;;;;;;;;20.80;99.90;;;;;;5010630;28;20011;-69
2022/07/13 01:58:17;;;;;;;;;;;20.90;99.90;;;;;;5029366;28;19917;-69
2022/07/13 02:00:43;;;;;;;;;;;20.90;99.90;;;;;;5011247;28;19917;-69
2022/07/13 02:03:08;;;;;;;;;;;20.90;99.90;;;;;;5028523;28;19951;-69
2022/07/13 02:05:34;;;;;;;;;;;20.90;99.90;;;;;;5022286;28;19917;-69
2022/07/13 02:07:59;;;;;;;;;;;20.80;99.90;;;;;;5023308;28;20035;-69
2022/07/13 02:10:37;;;;;;;;;;;20.90;99.90;;;;;;5027658;28;20018;-69
2022/07/13 02:13:03;;;;;;;;;;;20.90;99.90;;;;;;5008980;28;19963;-69
2022/07/13 02:15:28;;;;;;;;;;;20.90;99.90;;;;;;5022190;28;19917;-69
2022/07/13 02:17:54;;;;;;;;;;;20.90;99.90;;;;;;5023927;28;19924;-69
2022/07/13 02:20:19;;;;;;;;;;;20.80;99.90;;;;;;5022801;28;19921;-69
2022/07/13 02:22:45;;;;;;;;;;;20.80;99.90;;;;;;5012309;28;19924;-69
2022/07/13 02:25:11;;;;;;;;;;;20.80;99.90;;;;;;5021563;28;19916;-69
2022/07/13 02:27:37;;;;;;;;;;;20.90;99.90;;;;;;5021160;28;20043;-69
2022/07/13 02:30:03;;;;;;;;;;;20.80;99.90;;;;;;5023029;28;20011;-69
2022/07/13 02:32:28;;;;;;;;;;;20.80;99.90;;;;;;5010229;28;19924;-69
2022/07/13 02:34:54;;;;;;;;;;;20.80;99.90;;;;;;5005945;28;19921;-69
2022/07/13 02:37:19;;;;;;;;;;;20.80;99.90;;;;;;5025520;28;20326;-69
2022/07/13 02:39:45;;;;;;;;;;;20.80;99.90;;;;;;5024735;28;19924;-69
2022/07/13 02:42:10;;;;;;;;;;;20.80;99.90;;;;;;5025809;28;20270;-69
2022/07/13 02:44:36;;;;;;;;;;;20.80;99.90;;;;;;5022401;28;19948;-69
2022/07/13 02:47:01;;;;;;;;;;;20.80;99.90;;;;;;5015508;28;19936;-69
2022/07/13 02:49:27;;;;;;;;;;;20.70;99.90;;;;;;5022601;28;19916;-69
2022/07/13 02:51:52;;;;;;;;;;;20.70;99.90;;;;;;5009839;28;19928;-69
2022/07/13 02:54:18;;;;;;;;;;;20.70;99.90;;;;;;5022937;28;19924;-69
2022/07/13 02:56:43;;;;;;;;;;;20.70;99.90;;;;;;5026094;28;19975;-69
2022/07/13 02:59:09;;;;;;;;;;;20.70;99.90;;;;;;5005978;28;19925;-69
2022/07/13 03:01:35;;;;;;;;;;;20.70;99.90;;;;;;5007486;28;19917;-69
2022/07/13 03:04:00;;;;;;;;;;;20.70;99.90;;;;;;5023233;28;20419;-69
2022/07/13 03:06:26;;;;;;;;;;;20.70;99.90;;;;;;5012214;28;19991;-69
2022/07/13 03:08:51;;;;;;;;;;;20.70;99.90;;;;;;5025606;28;20040;-69
2022/07/13 03:11:17;;;;;;;;;;;20.70;99.90;;;;;;5015880;28;19924;-69
2022/07/13 03:13:42;;;;;;;;;;;20.70;99.90;;;;;;5023063;28;19916;-69
2022/07/13 03:16:08;;;;;;;;;;;20.70;99.90;;;;;;5023980;28;20204;-69
2022/07/13 03:18:33;;;;;;;;;;;20.60;99.90;;;;;;5030829;28;20028;-69
2022/07/13 03:20:59;;;;;;;;;;;20.60;99.90;;;;;;5014593;28;19923;-69
2022/07/13 03:23:24;;;;;;;;;;;20.60;99.90;;;;;;5026281;28;19969;-69
2022/07/13 03:25:50;;;;;;;;;;;20.60;99.90;;;;;;5025786;28;20302;-71
2022/07/13 03:28:15;;;;;;;;;;;20.70;99.90;;;;;;5001633;28;19921;-69
2022/07/13 03:30:41;;;;;;;;;;;20.60;99.90;;;;;;5021637;28;19924;-69
2022/07/13 03:33:06;;;;;;;;;;;20.60;99.90;;;;;;5022574;28;20007;-69
2022/07/13 03:35:32;;;;;;;;;;;20.60;99.90;;;;;;5021986;28;20339;-69
2022/07/13 03:37:57;;;;;;;;;;;20.60;99.90;;;;;;5023650;28;19917;-69
2022/07/13 03:40:23;;;;;;;;;;;20.60;99.90;;;;;;5006349;28;19947;-69
2022/07/13 03:42:48;;;;;;;;;;;20.60;99.90;;;;;;5027240;28;19929;-69
2022/07/13 03:45:14;;;;;;;;;;;20.60;99.90;;;;;;5020940;28;19921;-69
2022/07/13 03:47:39;;;;;;;;;;;20.60;99.90;;;;;;4993225;28;19996;-69
2022/07/13 03:50:05;;;;;;;;;;;20.60;99.90;;;;;;5022990;28;19917;-69
2022/07/13 03:52:30;;;;;;;;;;;20.60;99.90;;;;;;5022756;28;19917;-69
2022/07/13 03:54:56;;;;;;;;;;;20.60;99.90;;;;;;5020726;28;19925;-69
2022/07/13 03:57:21;;;;;;;;;;;20.60;99.90;;;;;;5003006;28;20003;-69
2022/07/13 03:59:47;;;;;;;;;;;20.60;99.90;;;;;;5025618;28;20052;-69
2022/07/13 04:02:12;;;;;;;;;;;20.60;99.90;;;;;;4998959;28;20012;-69
2022/07/13 04:04:38;;;;;;;;;;;20.60;99.90;;;;;;5009701;28;20362;-69
2022/07/13 04:07:03;;;;;;;;;;;20.50;99.90;;;;;;5022352;28;19967;-69
2022/07/13 04:09:29;;;;;;;;;;;20.60;99.90;;;;;;5011528;28;19917;-69
2022/07/13 04:11:54;;;;;;;;;;;20.50;99.90;;;;;;4989570;28;19928;-69
2022/07/13 04:14:20;;;;;;;;;;;20.60;99.90;;;;;;5010431;28;19924;-69
2022/07/13 04:16:45;;;;;;;;;;;20.50;99.90;;;;;;5010216;28;20381;-69
2022/07/13 04:19:11;;;;;;;;;;;20.60;99.90;;;;;;5024963;28;19925;-69
2022/07/13 04:21:36;;;;;;;;;;;20.60;99.90;;;;;;5022439;28;19921;-69
2022/07/13 04:24:02;;;;;;;;;;;20.50;99.90;;;;;;5026881;28;19925;-69
2022/07/13 04:26:28;;;;;;;;;;;20.50;99.90;;;;;;5018907;28;20013;-69
2022/07/13 04:28:54;;;;;;;;;;;20.50;99.90;;;;;;5024358;28;19928;-69
2022/07/13 04:31:19;;;;;;;;;;;20.60;99.90;;;;;;5009148;28;19921;-69
2022/07/13 04:33:45;;;;;;;;;;;20.60;99.90;;;;;;5024677;22;19921;-72
2022/07/13 04:36:10;;;;;;;;;;;20.60;99.90;;;;;;5003703;28;19957;-72
2022/07/13 04:38:36;;;;;;;;;;;20.60;99.90;;;;;;5021112;28;19921;-71
2022/07/13 04:41:01;;;;;;;;;;;20.60;99.90;;;;;;4988989;28;19921;-71
2022/07/13 04:43:27;;;;;;;;;;;20.60;99.90;;;;;;4990896;28;20778;-72
2022/07/13 04:45:53;;;;;;;;;;;20.50;99.90;;;;;;5001514;28;20445;-73
2022/07/13 04:48:18;;;;;;;;;;;20.60;99.90;;;;;;4996512;28;20647;-71
2022/07/13 04:50:44;;;;;;;;;;;20.60;99.90;;;;;;5003275;28;20334;-72
2022/07/13 04:53:09;;;;;;;;;;;20.60;99.90;;;;;;4994952;28;19975;-71
2022/07/13 04:55:38;;;;;;;;;;;20.60;99.90;;;;;;4987670;28;20388;-72
2022/07/13 04:58:04;;;;;;;;;;;20.60;99.90;;;;;;5007256;28;19925;-72
2022/07/13 05:00:29;;;;;;;;;;;20.60;99.90;;;;;;4987620;28;19922;-72
2022/07/13 05:02:55;;;;;;;;;;;20.60;99.90;;;;;;4989201;28;19984;-72
2022/07/13 05:05:21;;;;;;;;;;;20.60;99.90;;;;;;4995548;28;20329;-72
2022/07/13 05:07:47;;;;;;;;;;;20.60;99.90;;;;;;4988732;28;20005;-72
2022/07/13 05:10:13;;;;;;;;;;;20.60;99.90;;;;;;4989751;28;19967;-71
2022/07/13 05:12:39;;;;;;;;;;;20.60;99.90;;;;;;5005371;28;20398;-72
2022/07/13 05:15:06;;;;;;;;;;;20.60;99.90;;;;;;5008557;28;20004;-71
2022/07/13 05:17:31;;;;;;;;;;;20.60;99.90;;;;;;4991409;28;19973;-71
2022/07/13 05:19:57;;;;;;;;;;;20.60;99.90;;;;;;4987553;28;19921;-71
2022/07/13 05:22:22;;;;;;;;;;;20.60;99.90;;;;;;5010814;28;20255;-71
2022/07/13 05:24:48;;;;;;;;;;;20.60;99.90;;;;;;4989283;28;20014;-72
2022/07/13 05:27:13;;;;;;;;;;;20.60;99.90;;;;;;5006609;28;20405;-71
2022/07/13 05:29:39;;;;;;;;;;;20.70;99.90;;;;;;4994102;28;19917;-71
2022/07/13 05:32:05;;;;;;;;;;;20.70;99.90;;;;;;5006650;28;20365;-71
2022/07/13 05:34:30;;;;;;;;;;;20.70;99.90;;;;;;5010490;28;19918;-71
2022/07/13 05:36:56;;;;;;;;;;;20.70;99.90;;;;;;5011138;28;20497;-71
2022/07/13 05:39:22;;;;;;;;;;;20.70;99.90;;;;;;4990818;28;19917;-72
2022/07/13 05:41:47;;;;;;;;;;;20.80;99.90;;;;;;4995868;28;19997;-71
2022/07/13 05:44:13;;;;;;;;;;;20.70;99.90;;;;;;5006678;28;19990;-72
2022/07/13 05:46:38;;;;;;;;;;;20.80;99.90;;;;;;4987080;28;19922;-76
2022/07/13 05:49:04;;;;;;;;;;;20.80;99.90;;;;;;4978470;28;19944;-73
2022/07/13 05:51:29;;;;;;;;;;;20.80;99.90;;;;;;4982222;28;19928;-78
2022/07/13 05:53:55;;;;;;;;;;;20.90;99.90;;;;;;4985238;28;19929;-75
2022/07/13 05:56:20;;;;;;;;;;;20.90;99.90;;;;;;4983602;28;19921;-74
2022/07/13 05:58:46;;;;;;;;;;;20.90;99.90;;;;;;5003520;28;19925;-72
2022/07/13 06:01:11;;;;;;;;;;;21.00;99.90;;;;;;5002972;28;19917;-72
2022/07/13 06:03:37;;;;;;;;;;;21.00;99.90;;;;;;5004317;28;19932;-73
2022/07/13 06:06:02;;;;;;;;;;;21.00;99.90;;;;;;4993695;28;20093;-73
2022/07/13 06:08:28;;;;;;;;;;;20.90;99.90;;;;;;4984782;28;20416;-71
2022/07/13 06:10:53;;;;;;;;;;;21.00;99.90;;;;;;4997189;28;19925;-72
2022/07/13 06:13:19;;;;;;;;;;;21.00;99.90;;;;;;4999532;28;20624;-71
2022/07/13 06:15:44;;;;;;;;;;;21.00;99.90;;;;;;5008577;28;19929;-72
2022/07/13 06:18:10;;;;;;;;;;;21.10;99.90;;;;;;5012075;28;20004;-72
2022/07/13 06:20:35;;;;;;;;;;;21.00;99.90;;;;;;5013166;28;20048;-71
2022/07/13 06:23:10;;;;;;;;;;;21.10;99.90;;;;;;4982224;28;19971;-72
2022/07/13 06:25:36;;;;;;;;;;;21.10;99.90;;;;;;4988598;28;19969;-72
2022/07/13 06:28:02;;;;;;;;;;;21.10;99.90;;;;;;4986183;28;19995;-71
2022/07/13 06:30:27;;;;;;;;;;;21.10;99.90;;;;;;4981835;28;19921;-71
2022/07/13 06:32:53;;;;;;;;;;;21.10;99.90;;;;;;4984135;28;20012;-71
2022/07/13 06:35:18;;;;;;;;;;;21.10;99.90;;;;;;4995303;28;19929;-71
2022/07/13 06:37:44;;;;;;;;;;;21.10;99.90;;;;;;4983139;28;19933;-71
2022/07/13 06:40:10;;;;;;;;;;;21.00;99.90;;;;;;4978019;28;19931;-73
2022/07/13 06:42:35;;;;;;;;;;;21.10;99.90;;;;;;4974985;28;20030;-71
2022/07/13 06:45:01;;;;;;;;;;;21.10;99.90;;;;;;4989269;28;19921;-71
2022/07/13 06:47:26;;;;;;;;;;;21.10;99.90;;;;;;5005481;28;19951;-72
2022/07/13 06:49:52;;;;;;;;;;;21.10;99.90;;;;;;5006993;28;19976;-72
2022/07/13 06:52:18;;;;;;;;;;;21.20;99.90;;;;;;4992078;28;19925;-73
2022/07/13 06:54:43;;;;;;;;;;;21.20;99.90;;;;;;5003490;28;19935;-71
2022/07/13 06:57:09;;;;;;;;;;;21.30;99.90;;;;;;4993279;28;19972;-72
2022/07/13 06:59:34;;;;;;;;;;;21.30;99.90;;;;;;5001046;28;20406;-73
2022/07/13 07:02:00;;;;;;;;;;;21.30;99.90;;;;;;5002969;28;20317;-72
2022/07/13 07:04:25;;;;;;;;;;;21.30;99.90;;;;;;4989916;28;19916;-72
2022/07/13 07:06:51;;;;;;;;;;;21.40;99.90;;;;;;4987076;28;20337;-73
2022/07/13 07:09:17;;;;;;;;;;;21.40;99.90;;;;;;5001012;28;19928;-72
2022/07/13 07:11:44;;;;;;;;;;;21.50;99.90;;;;;;4983130;28;19922;-72
2022/07/13 07:14:10;;;;;;;;;;;21.50;99.90;;;;;;4992702;28;19917;-72
2022/07/13 07:16:42;;;;;;;;;;;21.50;99.90;;;;;;5007438;28;19918;-72
2022/07/13 07:19:07;;;;;;;;;;;21.60;99.90;;;;;;4990718;28;20107;-72
2022/07/13 07:21:33;;;;;;;;;;;21.60;99.90;;;;;;4992178;28;20049;-71
2022/07/13 07:23:58;;;;;;;;;;;21.70;99.90;;;;;;4992940;28;19927;-71
2022/07/13 07:26:24;;;;;;;;;;;21.80;99.90;;;;;;4994507;28;19935;-72
2022/07/13 07:28:50;;;;;;;;;;;21.80;99.90;;;;;;4983690;28;20301;-72
2022/07/13 07:31:15;;;;;;;;;;;21.90;99.90;;;;;;4988472;28;20332;-72
2022/07/13 07:33:40;;;;;;;;;;;21.90;99.90;;;;;;4996817;28;19917;-73
2022/07/13 07:36:06;;;;;;;;;;;21.90;99.90;;;;;;4994578;28;19961;-71
2022/07/13 07:38:32;;;;;;;;;;;22.00;99.90;;;;;;4986577;28;19932;-71
2022/07/13 07:40:58;;;;;;;;;;;22.00;99.90;;;;;;4982289;28;19928;-72
2022/07/13 07:43:24;;;;;;;;;;;22.10;99.90;;;;;;4990461;28;19929;-71
2022/07/13 07:45:49;;;;;;;;;;;22.10;99.90;;;;;;4996438;28;19924;-72
2022/07/13 07:48:15;;;;;;;;;;;22.20;99.90;;;;;;4984613;28;19925;-71
2022/07/13 07:50:40;;;;;;;;;;;22.20;99.90;;;;;;5012701;28;19975;-72
2022/07/13 07:53:06;;;;;;;;;;;22.30;99.90;;;;;;4984366;28;19925;-72
2022/07/13 07:55:31;;;;;;;;;;;22.30;99.90;;;;;;5004641;28;19952;-73
2022/07/13 07:57:58;;;;;;;;;;;22.40;99.90;;;;;;4989465;28;19997;-72
2022/07/13 08:00:23;;;;;;;;;;;22.40;99.90;;;;;;5002671;28;21212;-73
2022/07/13 08:02:49;;;;;;;;;;;22.50;99.90;;;;;;4989846;28;19953;-72
2022/07/13 08:05:14;;;;;;;;;;;22.50;99.90;;;;;;5010783;28;20063;-72
2022/07/13 08:07:42;;;;;;;;;;;22.60;99.90;;;;;;4988113;28;20037;-72
2022/07/13 08:10:08;;;;;;;;;;;22.60;99.90;;;;;;4970729;28;19953;-71
2022/07/13 08:12:33;;;;;;;;;;;22.70;99.90;;;;;;5006169;28;19991;-71
2022/07/13 08:14:59;;;;;;;;;;;22.70;99.90;;;;;;5000698;28;19993;-72
2022/07/13 08:17:24;;;;;;;;;;;22.80;99.90;;;;;;5007569;28;19989;-71
2022/07/13 08:19:50;;;;;;;;;;;22.80;99.90;;;;;;5006921;28;19921;-72
2022/07/13 08:22:15;;;;;;;;;;;22.90;99.90;;;;;;4990685;28;20394;-72
2022/07/13 08:24:41;;;;;;;;;;;22.90;99.90;;;;;;4991935;28;19925;-72
2022/07/13 08:27:06;;;;;;;;;;;22.90;99.90;;;;;;5006792;28;19926;-71
2022/07/13 08:29:32;;;;;;;;;;;23.00;99.90;;;;;;5018544;28;19925;-72
2022/07/13 08:31:57;;;;;;;;;;;23.00;99.90;;;;;;5007253;28;19934;-72
2022/07/13 08:39:51;;;;;;;;;;;23.20;99.90;;;;;;5000502;28;19997;-72
2022/07/13 08:42:17;;;;;;;;;;;23.30;99.90;;;;;;5011233;28;20023;-72
2022/07/13 08:44:42;;;;;;;;;;;23.30;99.90;;;;;;5000902;28;20067;-72
2022/07/13 08:47:09;;;;;;;;;;;23.40;99.90;;;;;;4986672;28;19925;-73
2022/07/13 08:49:35;;;;;;;;;;;23.40;99.90;;;;;;4981747;28;20068;-71
2022/07/13 08:52:01;;;;;;;;;;;23.50;99.90;;;;;;5013904;28;19972;-71
2022/07/13 08:54:26;;;;;;;;;;;23.50;99.90;;;;;;5003481;28;19917;-71
2022/07/13 08:56:52;;;;;;;;;;;23.60;99.90;;;;;;4993477;28;19921;-71
2022/07/13 08:59:21;;;;;;;;;;;23.60;99.90;;;;;;5014310;28;19967;-71
2022/07/13 09:01:47;;;;;;;;;;;23.60;99.90;;;;;;4984659;28;19921;-72
2022/07/13 09:04:12;;;;;;;;;;;23.70;99.90;;;;;;5007154;28;19944;-71
2022/07/13 09:06:38;;;;;;;;;;;23.80;99.90;;;;;;5010048;28;20315;-72
2022/07/13 09:09:04;;;;;;;;;;;23.80;99.90;;;;;;4987806;28;19940;-71
2022/07/13 09:11:29;;;;;;;;;;;23.90;99.90;;;;;;5009184;28;19920;-71
2022/07/13 09:13:57;;;;;;;;;;;24.00;99.90;;;;;;5008276;28;19917;-71
2022/07/13 09:16:24;;;;;;;;;;;24.10;99.90;;;;;;4988606;28;19928;-71
2022/07/13 09:18:51;;;;;;;;;;;24.20;99.90;;;;;;5007338;28;19917;-71
2022/07/13 09:21:18;;;;;;;;;;;24.20;99.90;;;;;;4993827;28;20634;-71
2022/07/13 09:23:46;;;;;;;;;;;24.30;99.90;;;;;;4973361;28;19968;-71
2022/07/13 09:26:12;;;;;;;;;;;24.40;99.90;;;;;;5012405;28;19971;-71
2022/07/13 09:28:44;;;;;;;;;;;24.50;99.90;;;;;;5013070;28;19917;-71
2022/07/13 09:31:10;;;;;;;;;;;24.50;99.90;;;;;;5003341;28;20047;-71
2022/07/13 09:33:36;;;;;;;;;;;24.60;99.90;;;;;;4991490;28;20017;-72
2022/07/13 09:36:23;;;;;;;;;;;24.70;99.90;;;;;;4994509;28;19961;-71
2022/07/13 09:38:51;;;;;;;;;;;24.80;99.90;;;;;;5012214;28;19925;-71
2022/07/13 09:41:26;;;;;;;;;;;24.90;99.90;;;;;;5012236;28;20063;-71
2022/07/13 09:46:49;;;;;;;;;;;25.00;99.90;;;;;;4992272;28;19921;-71
2022/07/13 09:49:18;;;;;;;;;;;25.10;99.90;;;;;;4995604;28;19990;-73
2022/07/13 09:51:44;;;;;;;;;;;25.10;99.90;;;;;;5006481;28;19925;-71
2022/07/13 09:54:10;;;;;;;;;;;25.10;99.90;;;;;;4995389;28;19936;-71
2022/07/13 09:56:36;;;;;;;;;;;25.20;99.90;;;;;;5005986;28;19925;-71
2022/07/13 09:59:04;;;;;;;;;;;25.20;99.90;;;;;;5006336;28;19918;-71
2022/07/13 10:01:31;;;;;;;;;;;25.30;99.90;;;;;;5008339;28;19924;-71
2022/07/13 10:03:58;;;;;;;;;;;25.30;99.90;;;;;;5009377;28;19925;-72
2022/07/13 10:06:23;;;;;;;;;;;25.30;99.90;;;;;;4992220;28;20007;-71
2022/07/13 10:08:53;;;;;;;;;;;25.40;99.90;;;;;;4986965;28;20314;-71
2022/07/13 10:11:18;;;;;;;;;;;25.50;99.90;;;;;;5014186;28;19924;-71
2022/07/13 10:13:45;;;;;;;;;;;25.50;99.90;;;;;;4996710;28;20230;-71
2022/07/13 10:16:11;;;;;;;;;;;25.60;99.90;;;;;;5015681;28;19921;-71
2022/07/13 10:18:41;;;;;;;;;;;25.70;99.90;;;;;;5015004;28;20400;-71
2022/07/13 10:21:12;;;;;;;;;;;25.70;99.90;;;;;;4990198;28;20067;-72
2022/07/13 10:23:38;;;;;;;;;;;25.70;99.90;;;;;;4989150;28;19947;-71
2022/07/13 10:26:18;;;;;;;;;;;25.70;98.60;;;;;;5005655;28;19996;-72
2022/07/13 10:28:59;;;;;;;;;;;25.70;99.90;;;;;;5009457;28;19979;-72
2022/07/13 10:31:25;;;;;;;;;;;25.70;99.00;;;;;;4998006;28;19918;-72
2022/07/13 10:33:52;;;;;;;;;;;25.80;99.70;;;;;;4975535;28;19917;-72
2022/07/13 10:36:37;;;;;;;;;;;25.80;99.10;;;;;;4988033;28;19917;-71
2022/07/13 10:39:07;;;;;;;;;;;25.90;99.80;;;;;;5001853;28;19944;-72
2022/07/13 10:41:32;;;;;;;;;;;25.90;99.50;;;;;;5006039;28;19918;-71
2022/07/13 10:44:24;;;;;;;;;;;25.90;93.90;;;;;;4989565;28;19924;-71
2022/07/13 10:46:50;;;;;;;;;;;25.90;94.30;;;;;;5007833;28;20012;-71
2022/07/13 10:49:31;;;;;;;;;;;25.90;91.30;;;;;;4984164;28;20274;-71
2022/07/13 10:52:17;;;;;;;;;;;26.00;97.60;;;;;;4986449;28;19918;-71
2022/07/13 10:55:02;;;;;;;;;;;26.00;98.30;;;;;;5009081;28;19917;-71
2022/07/13 10:57:27;;;;;;;;;;;26.10;97.70;;;;;;5003833;28;19929;-72
2022/07/13 10:59:59;;;;;;;;;;;26.20;96.30;;;;;;5004503;28;19999;-71
2022/07/13 11:02:41;;;;;;;;;;;26.20;96.60;;;;;;5013956;28;19971;-72
2022/07/13 11:05:07;;;;;;;;;;;26.30;93.10;;;;;;4985185;28;19917;-71
2022/07/13 11:07:40;;;;;;;;;;;26.30;96.20;;;;;;4993723;28;19925;-73
2022/07/13 11:10:25;;;;;;;;;;;26.40;96.40;;;;;;4987719;28;19918;-71
2022/07/13 11:12:57;;;;;;;;;;;26.40;91.90;;;;;;4991680;28;19917;-72
2022/07/13 11:15:23;;;;;;;;;;;26.40;87.20;;;;;;5005940;28;19936;-71
2022/07/13 11:17:53;;;;;;;;;;;26.40;91.70;;;;;;4987925;28;19917;-71
2022/07/13 11:20:19;;;;;;;;;;;26.40;92.90;;;;;;4987619;28;20390;-72
2022/07/13 11:25:50;;;;;;;;;;;26.50;93.60;;;;;;5004687;28;19936;-72
2022/07/13 11:28:36;;;;;;;;;;;26.40;89.60;;;;;;4984072;28;20031;-72
2022/07/13 11:31:02;;;;;;;;;;;26.40;93.80;;;;;;5002092;28;19925;-72
2022/07/13 11:33:28;;;;;;;;;;;26.50;92.80;;;;;;4985449;28;20060;-72
2022/07/13 11:35:54;;;;;;;;;;;26.50;95.90;;;;;;4993129;28;20091;-72
2022/07/13 11:38:21;;;;;;;;;;;26.40;97.20;;;;;;5008976;28;20302;-71
2022/07/13 11:40:47;;;;;;;;;;;26.40;99.00;;;;;;4997445;28;20270;-72
2022/07/13 11:43:12;;;;;;;;;;;26.40;99.80;;;;;;5000092;28;20358;-72
2022/07/13 11:45:39;;;;;;;;;;;26.40;99.60;;;;;;5005037;28;19917;-72
2022/07/13 11:48:04;;;;;;;;;;;26.20;98.90;;;;;;4995370;28;19925;-72
2022/07/13 11:50:43;;;;;;;;;;;26.20;99.80;;;;;;5001102;28;19917;-72
2022/07/13 11:53:18;;;;;;;;;;;26.00;99.90;;;;;;5004237;28;19989;-72
2022/07/13 11:55:43;;;;;;;;;;;25.90;99.90;;;;;;5011368;28;20416;-71
2022/07/13 11:58:22;;;;;;;;;;;25.80;99.90;;;;;;5002263;28;19917;-72
2022/07/13 12:00:48;;;;;;;;;;;25.80;99.90;;;;;;4989902;28;19926;-72
2022/07/13 12:03:13;;;;;;;;;;;25.80;99.90;;;;;;4999481;28;19916;-73
2022/07/13 12:05:42;;;;;;;;;;;25.80;99.90;;;;;;5011367;28;20012;-73
2022/07/13 12:08:07;;;;;;;;;;;25.70;99.90;;;;;;4997495;28;20044;-73
2022/07/13 12:10:36;;;;;;;;;;;25.60;99.90;;;;;;4993019;28;20007;-73
2022/07/13 12:13:01;;;;;;;;;;;25.70;99.90;;;;;;5008522;28;19975;-74
2022/07/13 12:15:27;;;;;;;;;;;25.70;99.90;;;;;;5010542;28;19925;-73
2022/07/13 12:17:53;;;;;;;;;;;25.70;99.90;;;;;;5008424;28;19928;-73
2022/07/13 12:20:20;;;;;;;;;;;25.70;99.90;;;;;;5006482;28;19964;-73
2022/07/13 12:22:50;;;;;;;;;;;25.70;99.90;;;;;;4988336;28;19947;-73
2022/07/13 12:25:42;;;;;;;;;;;25.80;99.90;;;;;;5004596;28;19936;-73
2022/07/13 12:28:11;;;;;;;;;;;26.00;99.90;;;;;;4988908;28;19990;-73
2022/07/13 12:30:53;;;;;;;;;;;26.10;99.90;;;;;;5010616;28;20342;-74
2022/07/13 12:33:19;;;;;;;;;;;26.10;99.90;;;;;;5010291;28;19925;-74
2022/07/13 12:35:45;;;;;;;;;;;26.10;99.90;;;;;;5010348;28;19971;-73
2022/07/13 12:38:12;;;;;;;;;;;26.00;99.90;;;;;;5007877;28;20366;-74
2022/07/13 12:40:42;;;;;;;;;;;25.90;99.90;;;;;;5007746;28;20315;-74
2022/07/13 12:43:16;;;;;;;;;;;25.80;99.90;;;;;;4994537;28;19917;-74
2022/07/13 12:45:43;;;;;;;;;;;25.70;99.90;;;;;;5006971;28;19917;-74
2022/07/13 12:48:12;;;;;;;;;;;25.70;99.90;;;;;;5005089;28;20007;-73
2022/07/13 12:50:38;;;;;;;;;;;25.70;99.90;;;;;;4987517;28;19935;-74
2022/07/13 12:53:03;;;;;;;;;;;25.80;99.90;;;;;;5007977;28;19921;-74
2022/07/13 12:55:29;;;;;;;;;;;25.70;99.90;;;;;;5011606;28;19953;-74
2022/07/13 12:57:54;;;;;;;;;;;25.70;99.90;;;;;;5004450;28;19917;-74
2022/07/13 13:00:26;;;;;;;;;;;25.70;99.90;;;;;;5009854;28;20520;-73
2022/07/13 13:02:52;;;;;;;;;;;25.80;99.90;;;;;;4994923;28;19955;-74
2022/07/13 13:05:17;;;;;;;;;;;25.80;99.90;;;;;;5015832;28;20429;-74
2022/07/13 13:07:43;;;;;;;;;;;25.80;99.90;;;;;;5007715;28;19925;-73
2022/07/13 13:10:09;;;;;;;;;;;25.70;99.90;;;;;;5009148;28;19936;-74
2022/07/13 13:12:35;;;;;;;;;;;25.80;99.90;;;;;;5007174;28;20409;-74
2022/07/13 13:15:01;;;;;;;;;;;25.90;99.90;;;;;;5009225;28;20421;-74
2022/07/13 13:17:27;;;;;;;;;;;26.00;99.90;;;;;;4992283;28;19917;-74
2022/07/13 13:19:53;;;;;;;;;;;26.00;99.90;;;;;;5004630;28;19932;-73
2022/07/13 13:22:19;;;;;;;;;;;26.10;99.90;;;;;;5015259;28;20000;-74
2022/07/13 13:24:46;;;;;;;;;;;26.20;99.90;;;;;;5005184;28;20090;-74
2022/07/13 13:27:12;;;;;;;;;;;26.10;99.90;;;;;;5001021;28;19925;-73
2022/07/13 13:32:22;;;;;;;;;;;25.80;99.90;;;;;;5007365;28;20004;-74
2022/07/13 13:34:47;;;;;;;;;;;25.80;99.90;;;;;;5010466;28;20071;-73
2022/07/13 13:37:13;;;;;;;;;;;25.70;99.90;;;;;;4992230;28;19970;-73
2022/07/13 13:39:38;;;;;;;;;;;25.70;99.90;;;;;;5014274;28;19924;-73
2022/07/13 13:42:04;;;;;;;;;;;25.60;99.90;;;;;;5011752;28;19917;-73
2022/07/13 13:44:30;;;;;;;;;;;25.50;99.90;;;;;;5003044;28;19921;-74
2022/07/13 13:46:55;;;;;;;;;;;25.50;99.90;;;;;;4992717;28;20011;-74
2022/07/13 13:49:21;;;;;;;;;;;25.50;99.90;;;;;;5001877;28;19917;-74
2022/07/13 13:51:46;;;;;;;;;;;25.50;99.90;;;;;;5005836;28;19926;-73
2022/07/13 13:54:13;;;;;;;;;;;25.50;99.90;;;;;;5006660;28;19922;-73
2022/07/13 13:56:39;;;;;;;;;;;25.40;99.90;;;;;;4981812;28;19918;-74
2022/07/13 13:59:05;;;;;;;;;;;25.50;99.90;;;;;;5004057;28;20277;-73
2022/07/13 14:01:30;;;;;;;;;;;25.40;99.90;;;;;;5011237;28;19933;-73
2022/07/13 14:03:56;;;;;;;;;;;25.30;99.90;;;;;;4990445;28;19921;-73
2022/07/13 14:06:22;;;;;;;;;;;25.20;99.90;;;;;;5007922;28;19983;-73
2022/07/13 14:08:47;;;;;;;;;;;25.20;99.90;;;;;;5007649;28;19925;-73
2022/07/13 14:11:13;;;;;;;;;;;25.20;99.90;;;;;;4994598;28;19925;-73
2022/07/13 14:13:40;;;;;;;;;;;25.30;99.50;;;;;;5008365;28;20257;-73
2022/07/13 14:16:06;;;;;;;;;;;25.30;99.90;;;;;;5006405;28;19936;-73
2022/07/13 14:18:32;;;;;;;;;;;25.20;99.20;;;;;;5012740;28;19921;-73
2022/07/13 14:20:57;;;;;;;;;;;25.40;99.90;;;;;;4990396;28;20277;-73
2022/07/13 14:23:23;;;;;;;;;;;25.50;99.00;;;;;;5014265;28;19928;-73
2022/07/13 14:25:48;;;;;;;;;;;25.60;99.20;;;;;;4989350;28;20425;-74
2022/07/13 14:28:15;;;;;;;;;;;25.70;97.70;;;;;;5008546;28;19922;-74